SBI5303 UNNT-UNKL
Flight info
| Callsign | SBI5303 |
|---|---|
| Flight time | N/A |
| Altitude | 37000 |
| Route | OGATI1L OGATI A308 RISPA A366 KESED A309 ROTLI A300 RANET RANET2S |
| Aircraft | A321/M-SDE3FGHIRWY/LB1 |
Departure
| Time | 2026-05-01 15:16 |
|---|---|
| Airport | Novosibirsk Tolmachevo Airport (UNNT) |
Arrival
| Time | N/A |
|---|---|
| Airport | Krasnoyarsk International Airport (UNKL) |
| Time | Latitude | Longitude | Altitude | Speed | Heading |
|---|---|---|---|---|---|
| 2026-05-01 14:14 | 55.00974 | 82.65769 | 373 ft | 0 kts | 171° |
| 2026-05-01 15:07 | 55.00970 | 82.65770 | 373 ft | 3 kts | 171° |
| 2026-05-01 15:07 | 55.00925 | 82.65747 | 373 ft | 8 kts | 231° |
| 2026-05-01 15:07 | 55.00916 | 82.65650 | 373 ft | 11 kts | 261° |
| 2026-05-01 15:07 | 55.00900 | 82.65471 | 373 ft | 16 kts | 261° |
| 2026-05-01 15:08 | 55.00884 | 82.65265 | 373 ft | 18 kts | 266° |
| 2026-05-01 15:08 | 55.00871 | 82.65044 | 373 ft | 19 kts | 263° |
| 2026-05-01 15:08 | 55.00896 | 82.64819 | 373 ft | 20 kts | 282° |
| 2026-05-01 15:08 | 55.00927 | 82.64581 | 373 ft | 21 kts | 283° |
| 2026-05-01 15:09 | 55.00958 | 82.64343 | 373 ft | 19 kts | 282° |
| 2026-05-01 15:09 | 55.00982 | 82.64154 | 373 ft | 10 kts | 283° |
| 2026-05-01 15:09 | 55.00988 | 82.64109 | 373 ft | 0 kts | 283° |
| 2026-05-01 15:10 | 55.00989 | 82.64099 | 373 ft | 3 kts | 283° |
| 2026-05-01 15:10 | 55.00991 | 82.64089 | 373 ft | 0 kts | 283° |
| 2026-05-01 15:12 | 55.00992 | 82.64077 | 373 ft | 4 kts | 283° |
| 2026-05-01 15:12 | 55.01024 | 82.64012 | 374 ft | 0 kts | 341° |
| 2026-05-01 15:14 | 55.01058 | 82.63998 | 375 ft | 13 kts | 350° |
| 2026-05-01 15:15 | 55.01162 | 82.64171 | 375 ft | 20 kts | 81° |
| 2026-05-01 15:15 | 55.01361 | 82.66371 | 401 ft | 153 kts | 82° |
| 2026-05-01 15:16 | 55.01710 | 82.70171 | 1624 ft | 162 kts | 87° |
| 2026-05-01 15:16 | 55.02096 | 82.74564 | 2179 ft | 205 kts | 88° |
| 2026-05-01 15:17 | 55.02565 | 82.79912 | 2709 ft | 243 kts | 86° |
| 2026-05-01 15:18 | 55.02231 | 82.88434 | 4826 ft | 247 kts | 132° |
| 2026-05-01 15:18 | 55.00999 | 82.90586 | 5427 ft | 254 kts | 138° |
| 2026-05-01 15:19 | 54.97448 | 82.97783 | 7462 ft | 278 kts | 109° |
| 2026-05-01 15:19 | 54.97219 | 83.04703 | 8839 ft | 293 kts | 93° |
| 2026-05-01 15:19 | 54.97204 | 83.08271 | 9523 ft | 298 kts | 93° |
| 2026-05-01 15:20 | 54.97153 | 83.15735 | 10326 ft | 328 kts | 94° |
| 2026-05-01 15:20 | 54.97116 | 83.19843 | 10460 ft | 350 kts | 93° |
| 2026-05-01 15:20 | 54.97019 | 83.24199 | 10588 ft | 369 kts | 98° |
| 2026-05-01 15:21 | 54.96696 | 83.28708 | 10900 ft | 381 kts | 99° |
| 2026-05-01 15:21 | 54.96357 | 83.33328 | 11430 ft | 386 kts | 99° |
| 2026-05-01 15:21 | 54.96013 | 83.37983 | 12001 ft | 391 kts | 99° |
| 2026-05-01 15:21 | 54.95663 | 83.42697 | 12562 ft | 395 kts | 99° |
| 2026-05-01 15:22 | 54.94942 | 83.52239 | 12982 ft | 399 kts | 99° |
| 2026-05-01 15:22 | 54.94579 | 83.57031 | 12989 ft | 399 kts | 99° |
| 2026-05-01 15:22 | 54.94210 | 83.61883 | 12988 ft | 399 kts | 99° |
| 2026-05-01 15:23 | 54.93847 | 83.66665 | 13002 ft | 401 kts | 99° |
| 2026-05-01 15:23 | 54.93477 | 83.71496 | 13580 ft | 404 kts | 99° |
| 2026-05-01 15:23 | 54.93103 | 83.76354 | 14138 ft | 407 kts | 99° |
| 2026-05-01 15:23 | 54.92723 | 83.81261 | 14662 ft | 411 kts | 99° |
| 2026-05-01 15:24 | 54.92338 | 83.86196 | 15186 ft | 414 kts | 99° |
| 2026-05-01 15:24 | 54.91948 | 83.91177 | 15706 ft | 417 kts | 99° |
| 2026-05-01 15:24 | 54.91551 | 83.96203 | 16212 ft | 421 kts | 99° |
| 2026-05-01 15:24 | 54.91149 | 84.01263 | 16688 ft | 424 kts | 99° |
| 2026-05-01 15:25 | 54.90748 | 84.06296 | 17172 ft | 427 kts | 99° |
| 2026-05-01 15:25 | 54.90331 | 84.11495 | 17660 ft | 431 kts | 99° |
| 2026-05-01 15:25 | 54.89916 | 84.16667 | 18132 ft | 434 kts | 99° |
| 2026-05-01 15:25 | 54.89496 | 84.21883 | 18552 ft | 437 kts | 99° |
| 2026-05-01 15:26 | 54.89071 | 84.27120 | 18974 ft | 439 kts | 100° |
| 2026-05-01 15:26 | 54.88638 | 84.32386 | 19412 ft | 441 kts | 100° |
| 2026-05-01 15:26 | 54.88200 | 84.37672 | 19855 ft | 443 kts | 100° |
| 2026-05-01 15:26 | 54.87759 | 84.42974 | 20287 ft | 444 kts | 100° |
| 2026-05-01 15:27 | 54.87319 | 84.48242 | 20745 ft | 446 kts | 100° |
| 2026-05-01 15:27 | 54.86866 | 84.53642 | 21194 ft | 448 kts | 100° |
| 2026-05-01 15:27 | 54.86413 | 84.59015 | 21600 ft | 450 kts | 100° |